Time;durP1;ratioP1;P1;durP2;ratioP2;P2;SDS_P1;SDS_P2;PMS_P1;PMS_P2;Temp;Humidity;BMP_temperature;BMP_pressure;BME280_temperature;BME280_humidity;BME280_pressure;Samples;Min_cycle;Max_cycle;Signal;HPM_P1;HPM_P2
2021/07/24 13:43:50;;;;;;;31.63;11.52;;;922.00;742.40;;;;;;5112313;27;20874;-63
2021/07/24 13:46:17;;;;;;;22.60;8.68;;;922.00;716.80;;;;;;5110930;28;20024;-64
2021/07/24 13:48:43;;;;;;;25.02;7.82;;;922.00;716.80;;;;;;5110797;28;20028;-65
2021/07/24 13:51:09;;;;;;;26.25;8.00;;;921.90;742.40;;;;;;5111439;28;20373;-66
2021/07/24 13:53:34;;;;;;;28.83;8.40;;;921.80;768.00;;;;;;5111494;28;20024;-70
2021/07/24 13:56:00;;;;;;;28.55;8.73;;;921.70;793.60;;;;;;5111535;28;20028;-65
2021/07/24 13:58:26;;;;;;;13.85;7.30;;;921.70;793.60;;;;;;5111520;28;20028;-65
2021/07/24 14:00:53;;;;;;;25.25;7.65;;;921.60;742.40;;;;;;5111576;28;20461;-65
2021/07/24 14:03:18;;;;;;;16.13;7.45;;;896.90;742.40;;;;;;5111196;28;20381;-65
2021/07/24 14:05:44;;;;;;;8.32;6.68;;;896.90;742.40;;;;;;5111767;28;20024;-65
2021/07/24 14:08:10;;;;;;;8.18;7.38;;;896.80;768.00;;;;;;5111552;28;20038;-65
2021/07/24 14:10:35;;;;;;;11.02;7.13;;;896.80;793.60;;;;;;5111068;28;20037;-65
2021/07/24 14:13:01;;;;;;;13.48;6.93;;;896.50;793.60;;;;;;5111219;28;20032;-66
2021/07/24 14:15:27;;;;;;;9.15;6.90;;;896.50;768.00;;;;;;5111091;28;20054;-66
2021/07/24 14:17:55;;;;;;;11.07;7.18;;;896.40;768.00;;;;;;5110864;28;20032;-64
2021/07/24 14:20:21;;;;;;;10.30;7.00;;;896.40;793.60;;;;;;5110710;28;20032;-66
2021/07/24 14:22:47;;;;;;;8.82;6.63;;;896.30;768.00;;;;;;5110917;28;20077;-66
2021/07/24 14:25:13;;;;;;;7.57;6.32;;;896.20;768.00;;;;;;5110614;28;20066;-65
2021/07/24 14:27:39;;;;;;;8.07;6.68;;;896.20;768.00;;;;;;5110790;28;20034;-66
2021/07/24 14:30:05;;;;;;;7.88;6.30;;;896.00;793.60;;;;;;5110909;28;20027;-66
2021/07/24 14:32:31;;;;;;;14.43;7.97;;;896.00;793.60;;;;;;5110338;28;20359;-64
2021/07/24 14:34:57;;;;;;;8.77;6.10;;;896.00;819.20;;;;;;5111030;28;20035;-64
2021/07/24 14:37:22;;;;;;;13.95;7.03;;;896.00;819.20;;;;;;5110880;28;20106;-66
2021/07/24 14:39:48;;;;;;;7.80;6.20;;;896.00;793.60;;;;;;5109891;28;20027;-65
2021/07/24 14:42:15;;;;;;;9.70;6.32;;;871.30;793.60;;;;;;5109122;28;20044;-65
2021/07/24 14:44:41;;;;;;;10.30;5.93;;;871.20;793.60;;;;;;5109934;28;20028;-64
2021/07/24 14:47:08;;;;;;;6.30;5.70;;;871.20;793.60;;;;;;5109217;28;20020;-65
2021/07/24 14:49:40;;;;;;;7.65;5.57;;;871.00;819.20;;;;;;5107481;28;20028;-64
2021/07/24 14:52:09;;;;;;;18.90;8.20;;;871.00;793.60;;;;;;5104782;28;20047;-65
2021/07/24 14:54:35;;;;;;;63.75;10.10;;;871.00;819.20;;;;;;5099166;28;20091;-63
2021/07/24 14:57:01;;;;;;;31.48;7.60;;;870.90;870.40;;;;;;5094444;28;20016;-63
2021/07/24 14:59:27;;;;;;;26.75;8.70;;;870.90;819.20;;;;;;5094448;28;20016;-63
2021/07/24 15:01:53;;;;;;;16.20;7.57;;;870.90;819.20;;;;;;5094304;28;20028;-63
2021/07/24 15:04:19;;;;;;;13.85;7.05;;;870.90;844.80;;;;;;5094499;28;20355;-63
2021/07/24 15:06:45;;;;;;;12.50;6.28;;;870.80;844.80;;;;;;5094091;28;20073;-63
2021/07/24 15:09:10;;;;;;;17.67;8.13;;;870.70;844.80;;;;;;5094450;28;20034;-63
2021/07/24 15:11:36;;;;;;;10.52;7.85;;;870.60;844.80;;;;;;5094676;28;20024;-63
2021/07/24 15:14:02;;;;;;;13.88;7.35;;;870.60;844.80;;;;;;5095792;28;20086;-63
2021/07/24 15:16:27;;;;;;;11.43;7.38;;;870.50;793.60;;;;;;5095748;28;20412;-63
2021/07/24 15:18:53;;;;;;;8.63;5.93;;;870.40;819.20;;;;;;5095393;28;20020;-63
2021/07/24 15:21:21;;;;;;;8.18;6.18;;;870.40;819.20;;;;;;5094542;28;20020;-64
2021/07/24 15:23:48;;;;;;;9.75;6.30;;;845.70;844.80;;;;;;5092848;28;20028;-63
2021/07/24 15:26:15;;;;;;;6.60;5.97;;;845.60;870.40;;;;;;5094761;28;20047;-63
2021/07/24 15:28:41;;;;;;;6.93;6.10;;;845.60;870.40;;;;;;5093003;28;20024;-63
2021/07/24 15:31:07;;;;;;;10.05;5.72;;;845.50;819.20;;;;;;5095739;28;20024;-62
2021/07/24 15:33:33;;;;;;;10.90;6.40;;;845.40;819.20;;;;;;5095652;28;20031;-63
2021/07/24 15:35:58;;;;;;;9.48;5.63;;;845.30;793.60;;;;;;5095227;28;20024;-63
2021/07/24 15:38:24;;;;;;;12.95;6.03;;;845.30;793.60;;;;;;5095438;28;20024;-63
2021/07/24 15:40:50;;;;;;;18.38;6.50;;;845.20;819.20;;;;;;5095278;28;20069;-63
2021/07/24 15:43:16;;;;;;;10.63;6.20;;;845.20;793.60;;;;;;5094937;28;20043;-63
2021/07/24 15:45:41;;;;;;;15.27;6.47;;;845.20;819.20;;;;;;5094498;28;20493;-63
2021/07/24 15:48:07;;;;;;;12.23;6.97;;;845.00;844.80;;;;;;5094560;28;20122;-64
2021/07/24 15:50:34;;;;;;;8.68;6.25;;;845.00;870.40;;;;;;5094448;28;20470;-63
2021/07/24 15:53:00;;;;;;;9.60;6.15;;;845.00;844.80;;;;;;5094497;28;20094;-63
2021/07/24 15:55:26;;;;;;;11.07;5.57;;;844.90;870.40;;;;;;5094539;28;20024;-63
2021/07/24 15:57:52;;;;;;;10.70;5.97;;;844.80;870.40;;;;;;5094176;28;20065;-63
2021/07/24 16:00:18;;;;;;;7.00;5.50;;;844.80;819.20;;;;;;5094778;28;20587;-63
2021/07/24 16:02:43;;;;;;;9.45;5.93;;;820.10;819.20;;;;;;5094310;28;20028;-63
2021/07/24 16:05:10;;;;;;;7.22;5.43;;;820.00;819.20;;;;;;5093002;28;20028;-64
2021/07/24 16:07:36;;;;;;;5.95;5.15;;;819.90;793.60;;;;;;5094581;28;20107;-63
2021/07/24 16:10:02;;;;;;;8.23;5.90;;;819.90;768.00;;;;;;5094551;28;20099;-63
2021/07/24 16:12:28;;;;;;;6.22;5.47;;;819.90;793.60;;;;;;5091891;28;20028;-64
2021/07/24 16:14:54;;;;;;;9.48;5.38;;;819.70;819.20;;;;;;5094246;28;20024;-64
2021/07/24 16:17:19;;;;;;;7.70;5.60;;;819.60;819.20;;;;;;5094522;28;20024;-63
2021/07/24 16:19:46;;;;;;;8.73;6.18;;;819.50;819.20;;;;;;5094375;28;20065;-63
2021/07/24 16:22:12;;;;;;;6.22;5.45;;;819.40;844.80;;;;;;5094526;28;20024;-64
2021/07/24 16:24:38;;;;;;;8.65;5.68;;;819.40;844.80;;;;;;5094876;28;20342;-62
2021/07/24 16:27:04;;;;;;;18.00;6.60;;;819.30;844.80;;;;;;5094383;28;20028;-65
2021/07/24 16:29:30;;;;;;;10.48;6.28;;;819.20;819.20;;;;;;5094492;28;20020;-64
2021/07/24 16:31:55;;;;;;;19.83;7.50;;;819.20;844.80;;;;;;5094514;28;20374;-71
2021/07/24 16:34:21;;;;;;;24.58;7.80;;;794.50;844.80;;;;;;5094227;28;20024;-65
2021/07/24 16:36:48;;;;;;;14.43;8.13;;;794.40;844.80;;;;;;5094128;28;20036;-65
2021/07/24 16:39:14;;;;;;;10.55;8.18;;;794.30;844.80;;;;;;5094304;28;20095;-64
2021/07/24 16:41:40;;;;;;;12.98;7.50;;;794.30;844.80;;;;;;5093863;28;20115;-64
2021/07/24 16:44:06;;;;;;;8.85;6.30;;;794.10;844.80;;;;;;5094304;28;20397;-65
2021/07/24 16:46:33;;;;;;;8.57;6.32;;;794.10;844.80;;;;;;5094262;28;20073;-65
2021/07/24 16:48:59;;;;;;;10.68;6.47;;;794.10;844.80;;;;;;5094012;28;20031;-65
2021/07/24 16:51:24;;;;;;;14.60;6.75;;;794.00;870.40;;;;;;5094156;28;20028;-65
2021/07/24 16:53:50;;;;;;;21.42;7.50;;;793.90;844.80;;;;;;5094180;28;20358;-65
2021/07/24 16:56:16;;;;;;;23.58;8.18;;;793.80;870.40;;;;;;5093508;28;20102;-64
2021/07/24 16:58:42;;;;;;;10.90;6.95;;;793.80;896.00;;;;;;5093394;28;20059;-63
2021/07/24 17:01:10;;;;;;;14.70;7.35;;;793.70;870.40;;;;;;5093520;28;20035;-63
2021/07/24 17:03:36;;;;;;;18.05;7.78;;;793.60;870.40;;;;;;5093648;28;20039;-64
2021/07/24 17:06:02;;;;;;;16.08;7.55;;;768.90;870.40;;;;;;5093616;28;20019;-65
2021/07/24 17:08:28;;;;;;;10.50;6.63;;;768.80;896.00;;;;;;5093738;28;20096;-64
2021/07/24 17:10:54;;;;;;;9.30;6.38;;;768.70;921.60;;;;;;5093748;28;20074;-64
2021/07/24 17:13:19;;;;;;;13.48;5.90;;;768.60;921.60;;;;;;5093889;28;20035;-65
2021/07/24 17:15:45;;;;;;;7.10;5.60;;;768.50;947.20;;;;;;5093364;28;20028;-64
2021/07/24 17:18:11;;;;;;;15.00;6.53;;;768.40;947.20;;;;;;5094171;28;20039;-65
2021/07/24 17:20:36;;;;;;;11.35;7.43;;;768.30;972.80;;;;;;5094412;28;20107;-65
2021/07/24 17:23:02;;;;;;;11.50;7.07;;;768.20;972.80;;;;;;5093926;28;20043;-65
2021/07/24 17:25:28;;;;;;;13.60;6.65;;;768.10;998.40;;;;;;5094092;28;20016;-66
2021/07/24 17:27:53;;;;;;;12.15;6.57;;;768.00;998.40;;;;;;5093811;28;20046;-66
2021/07/24 17:30:19;;;;;;;15.32;6.32;;;768.00;998.40;;;;;;5094245;28;20030;-65
2021/07/24 17:32:45;;;;;;;9.30;6.40;;;743.30;1024.00;;;;;;5093984;28;20028;-65
2021/07/24 17:35:15;;;;;;;6.10;5.50;;;743.20;1024.00;;;;;;5093756;28;20372;-66
2021/07/24 17:37:42;;;;;;;28.10;6.88;;;743.10;1049.60;;;;;;5094148;28;20039;-65
2021/07/24 17:40:09;;;;;;;19.30;7.18;;;743.00;1075.20;;;;;;5093939;28;20024;-64
2021/07/24 17:42:35;;;;;;;15.57;6.88;;;742.90;1075.20;;;;;;5093670;28;20052;-65
2021/07/24 17:45:01;;;;;;;15.52;6.82;;;742.90;1075.20;;;;;;5093972;28;20028;-66
2021/07/24 17:47:26;;;;;;;12.23;7.10;;;742.80;1100.80;;;;;;5094142;28;20423;-65
2021/07/24 17:49:52;;;;;;;15.27;7.25;;;742.70;1100.80;;;;;;5093742;28;20016;-65
2021/07/24 17:52:18;;;;;;;10.18;7.35;;;742.60;1126.40;;;;;;5093652;28;20024;-65
2021/07/24 17:54:44;;;;;;;10.73;7.10;;;742.50;1126.40;;;;;;5093629;28;20030;-65
2021/07/24 17:57:09;;;;;;;10.55;7.53;;;742.50;1152.00;;;;;;5093633;28;20437;-65
2021/07/24 17:59:35;;;;;;;11.73;7.60;;;742.40;1152.00;;;;;;5093499;28;20027;-65
2021/07/24 18:02:01;;;;;;;14.43;7.80;;;742.40;1152.00;;;;;;5094103;28;20381;-65
2021/07/24 18:04:26;;;;;;;13.55;7.55;;;717.70;1152.00;;;;;;5093588;28;20093;-65
2021/07/24 18:06:52;;;;;;;10.57;7.55;;;717.60;1152.00;;;;;;5093705;28;20104;-65
2021/07/24 18:09:18;;;;;;;13.50;7.32;;;717.50;1152.00;;;;;;5093438;28;20477;-65
2021/07/24 18:11:43;;;;;;;11.50;7.57;;;717.50;1152.00;;;;;;5093449;28;20048;-65
2021/07/24 18:14:09;;;;;;;8.77;7.15;;;717.50;1152.00;;;;;;5093728;28;20024;-65
2021/07/24 18:16:35;;;;;;;14.52;8.20;;;717.30;1177.60;;;;;;5093337;28;20080;-65
2021/07/24 18:19:00;;;;;;;10.82;7.55;;;717.20;1177.60;;;;;;5093699;28;20066;-65
2021/07/24 18:21:26;;;;;;;9.57;7.93;;;717.20;1177.60;;;;;;5093477;28;20028;-65
2021/07/24 18:23:52;;;;;;;16.17;7.97;;;717.10;1177.60;;;;;;5093299;28;20119;-64
2021/07/24 18:26:21;;;;;;;17.90;8.32;;;717.00;1203.20;;;;;;5093226;28;20016;-64
2021/07/24 18:28:47;;;;;;;16.75;7.80;;;716.90;1203.20;;;;;;5094169;28;20024;-65
2021/07/24 18:31:16;;;;;;;18.45;7.95;;;692.10;1203.20;;;;;;5097116;28;20016;-65
2021/07/24 18:33:42;;;;;;;15.50;8.93;;;692.00;1203.20;;;;;;5097287;28;20429;-65
2021/07/24 18:36:08;;;;;;;32.10;9.75;;;692.00;1228.80;;;;;;5097073;28;20052;-64
2021/07/24 18:38:35;;;;;;;19.13;10.25;;;691.90;1254.40;;;;;;5096700;28;20055;-65
2021/07/24 18:41:01;;;;;;;23.58;10.55;;;691.80;1280.00;;;;;;5097038;28;20513;-65
2021/07/24 18:43:30;;;;;;;25.05;10.10;;;691.70;1305.60;;;;;;5096822;28;20052;-65
2021/07/24 18:45:57;;;;;;;18.75;10.55;;;691.50;1305.60;;;;;;5096981;28;20354;-66
2021/07/24 18:48:23;;;;;;;21.17;9.57;;;691.50;1331.20;;;;;;5095943;28;20039;-64
2021/07/24 18:50:48;;;;;;;19.77;10.25;;;691.40;1331.20;;;;;;5095707;28;20016;-65
2021/07/24 18:53:14;;;;;;;21.13;11.27;;;691.30;1331.20;;;;;;5095505;28;20016;-63
2021/07/24 18:55:41;;;;;;;19.33;11.65;;;691.30;1356.80;;;;;;5095115;28;20044;-65
2021/07/24 18:58:07;;;;;;;47.50;11.35;;;691.30;1356.80;;;;;;5095312;28;20098;-63
2021/07/24 19:00:33;;;;;;;29.40;12.60;;;691.30;1382.40;;;;;;5095247;28;20024;-65
2021/07/24 19:03:05;;;;;;;28.52;12.68;;;691.20;1408.00;;;;;;5095011;28;20043;-66
2021/07/24 19:05:31;;;;;;;25.08;11.75;;;666.40;1408.00;;;;;;5095282;28;20020;-65
2021/07/24 19:07:57;;;;;;;23.35;12.32;;;666.30;1408.00;;;;;;5093169;28;20040;-65
2021/07/24 19:10:23;;;;;;;31.08;13.65;;;666.30;1408.00;;;;;;5094886;28;20020;-65
2021/07/24 19:12:49;;;;;;;21.17;14.00;;;666.20;1408.00;;;;;;5094939;28;20091;-65
2021/07/24 19:15:14;;;;;;;29.58;15.57;;;666.20;1408.00;;;;;;5094988;28;20020;-65
2021/07/24 19:17:40;;;;;;;34.38;15.52;;;666.10;1382.40;;;;;;5094999;28;20020;-64
2021/07/24 19:20:07;;;;;;;36.30;16.15;;;666.10;1382.40;;;;;;5095363;28;20370;-63
2021/07/24 19:22:33;;;;;;;26.17;14.35;;;666.20;1382.40;;;;;;5094443;28;20478;-64
2021/07/24 19:24:59;;;;;;;27.90;13.82;;;666.10;1356.80;;;;;;5095960;28;20070;-70
2021/07/24 19:27:25;;;;;;;20.65;14.13;;;666.10;1356.80;;;;;;5096391;28;20038;-66
2021/07/24 19:29:52;;;;;;;24.90;14.10;;;666.10;1356.80;;;;;;5096129;28;20020;-68
2021/07/24 19:32:18;;;;;;;20.75;13.32;;;666.10;1356.80;;;;;;5096246;28;20347;-66
2021/07/24 19:34:44;;;;;;;15.77;13.07;;;666.10;1356.80;;;;;;5095967;28;20024;-69
2021/07/24 19:37:09;;;;;;;18.15;13.15;;;666.20;1356.80;;;;;;5096101;28;20069;-66
2021/07/24 19:39:35;;;;;;;21.05;13.18;;;666.10;1382.40;;;;;;5094719;28;20492;-68
2021/07/24 19:42:01;;;;;;;15.00;13.07;;;666.10;1382.40;;;;;;5095607;28;20051;-67
2021/07/24 19:44:27;;;;;;;25.45;14.27;;;666.10;1382.40;;;;;;5094020;28;20099;-78
2021/07/24 19:46:52;;;;;;;30.70;15.50;;;666.10;1408.00;;;;;;5093801;28;20027;-67
2021/07/24 19:49:18;;;;;;;36.17;16.00;;;666.10;1408.00;;;;;;5095004;28;20028;-67
2021/07/24 19:51:44;;;;;;;22.90;15.23;;;666.00;1408.00;;;;;;5095165;28;20373;-67
2021/07/24 19:54:09;;;;;;;22.33;15.40;;;665.80;1433.60;;;;;;5093863;28;20487;-68
2021/07/24 19:56:35;;;;;;;20.25;15.68;;;665.70;1459.20;;;;;;5094514;28;20032;-68
2021/07/24 19:59:01;;;;;;;19.70;14.95;;;665.60;1459.20;;;;;;5093969;28;20420;-68
2021/07/24 20:01:26;;;;;;;20.40;16.23;;;640.90;1459.20;;;;;;5093910;28;20088;-67
2021/07/24 20:03:52;;;;;;;21.23;15.70;;;640.80;1459.20;;;;;;5093721;28;20036;-66
2021/07/24 20:06:19;;;;;;;22.15;17.30;;;640.80;1459.20;;;;;;5094088;28;20024;-65
2021/07/24 20:08:45;;;;;;;24.02;17.13;;;640.80;1459.20;;;;;;5093618;28;20034;-66
2021/07/24 20:11:11;;;;;;;23.20;17.83;;;640.80;1459.20;;;;;;5093952;28;20107;-68
2021/07/24 20:13:37;;;;;;;22.98;17.35;;;640.70;1484.80;;;;;;5093900;28;20553;-68
2021/07/24 20:16:03;;;;;;;20.00;17.83;;;640.70;1484.80;;;;;;5093646;28;20024;-67
2021/07/24 20:18:29;;;;;;;19.08;17.17;;;640.70;1484.80;;;;;;5093735;28;20056;-66
2021/07/24 20:20:54;;;;;;;21.50;19.20;;;640.70;1484.80;;;;;;5090821;28;20020;-66
2021/07/24 20:23:20;;;;;;;26.80;19.52;;;640.60;1484.80;;;;;;5093785;28;20032;-72
2021/07/24 20:25:47;;;;;;;22.25;18.42;;;640.60;1484.80;;;;;;5093384;28;20081;-71
2021/07/24 20:28:12;;;;;;;29.00;19.05;;;640.50;1484.80;;;;;;5090881;28;20101;-71
2021/07/24 20:30:38;;;;;;;20.10;17.25;;;640.50;1459.20;;;;;;5093547;28;20044;-68
2021/07/24 20:33:04;;;;;;;21.73;18.30;;;640.50;1459.20;;;;;;5093082;28;20035;-68
2021/07/24 20:35:31;;;;;;;21.58;18.60;;;640.50;1459.20;;;;;;5093347;28;20023;-69
2021/07/24 20:37:58;;;;;;;25.38;18.95;;;640.50;1459.20;;;;;;5093419;28;20028;-67
2021/07/24 20:40:24;;;;;;;21.10;18.80;;;640.50;1459.20;;;;;;5086548;28;20027;-67
2021/07/24 20:42:49;;;;;;;22.33;20.02;;;640.50;1459.20;;;;;;5093171;28;20416;-75
2021/07/24 20:45:15;;;;;;;23.92;20.23;;;640.40;1459.20;;;;;;5093406;28;20032;-67
2021/07/24 20:47:41;;;;;;;22.38;20.00;;;640.40;1459.20;;;;;;5093142;28;20028;-68
2021/07/24 20:50:07;;;;;;;21.02;18.80;;;640.40;1433.60;;;;;;5093298;28;20047;-69
2021/07/24 20:52:33;;;;;;;22.90;20.50;;;640.40;1433.60;;;;;;5092900;28;20036;-68
2021/07/24 20:54:59;;;;;;;23.52;20.98;;;640.30;1459.20;;;;;;5093148;28;20032;-67
2021/07/24 20:57:25;;;;;;;23.98;20.45;;;640.30;1459.20;;;;;;5093056;28;20597;-67
2021/07/24 20:59:51;;;;;;;23.05;19.42;;;640.30;1459.20;;;;;;5091555;28;20036;-67
2021/07/24 21:02:17;;;;;;;21.95;19.85;;;640.30;1459.20;;;;;;5092521;28;20070;-69
2021/07/24 21:04:43;;;;;;;23.13;19.15;;;640.20;1459.20;;;;;;5093032;28;20540;-68
2021/07/24 21:07:09;;;;;;;24.42;19.88;;;640.20;1459.20;;;;;;5092703;28;20365;-68
2021/07/24 21:09:35;;;;;;;22.08;19.77;;;640.20;1459.20;;;;;;5092763;28;20052;-67
2021/07/24 21:12:04;;;;;;;22.20;19.20;;;640.20;1459.20;;;;;;5090631;28;20146;-67
2021/07/24 21:14:33;;;;;;;21.13;18.90;;;640.10;1484.80;;;;;;5092893;28;20059;-67
2021/07/24 21:16:59;;;;;;;22.25;18.35;;;640.10;1459.20;;;;;;5092609;28;20350;-68
2021/07/24 21:19:25;;;;;;;23.60;18.67;;;640.10;1459.20;;;;;;5092648;28;20541;-68
2021/07/24 21:21:51;;;;;;;21.42;19.00;;;640.10;1459.20;;;;;;5092787;28;20163;-68
2021/07/24 21:24:16;;;;;;;21.80;18.13;;;640.10;1459.20;;;;;;5092907;28;20027;-68
2021/07/24 21:26:42;;;;;;;20.35;18.15;;;640.10;1459.20;;;;;;5093003;28;20028;-69
2021/07/24 21:29:08;;;;;;;20.02;17.90;;;640.10;1459.20;;;;;;5092608;28;20084;-67
2021/07/24 21:31:34;;;;;;;19.70;17.60;;;640.10;1459.20;;;;;;5092513;28;20024;-67
2021/07/24 21:34:01;;;;;;;20.95;17.80;;;640.10;1459.20;;;;;;5092817;28;20024;-67
2021/07/24 21:36:27;;;;;;;21.88;17.17;;;640.00;1459.20;;;;;;5091109;28;20094;-67
2021/07/24 21:38:53;;;;;;;23.70;17.77;;;640.10;1459.20;;;;;;5092517;28;20117;-67
2021/07/24 21:41:19;;;;;;;20.42;16.75;;;640.00;1459.20;;;;;;5092242;28;20126;-67
2021/07/24 21:43:44;;;;;;;19.15;16.88;;;640.00;1433.60;;;;;;5091109;28;20127;-67
2021/07/24 21:46:10;;;;;;;18.55;15.55;;;640.00;1433.60;;;;;;5093355;28;20020;-68
2021/07/24 21:48:36;;;;;;;21.13;16.40;;;640.00;1433.60;;;;;;5094052;28;20050;-68
2021/07/24 21:51:01;;;;;;;22.45;16.75;;;640.00;1433.60;;;;;;5093849;28;20436;-68
2021/07/24 21:53:27;;;;;;;23.50;16.00;;;640.00;1433.60;;;;;;5093885;28;20020;-68
2021/07/24 21:55:54;;;;;;;22.40;16.73;;;640.00;1408.00;;;;;;5093663;28;20024;-68
2021/07/24 21:58:21;;;;;;;19.10;16.65;;;640.00;1408.00;;;;;;5093759;28;20028;-68
2021/07/24 22:00:48;;;;;;;26.20;16.88;;;640.00;1408.00;;;;;;5093138;28;20027;-67
2021/07/24 22:03:15;;;;;;;20.48;17.58;;;640.00;1408.00;;;;;;5092903;28;20081;-68
2021/07/24 22:05:42;;;;;;;19.15;16.95;;;615.30;1408.00;;;;;;5097060;28;20040;-68
2021/07/24 22:08:09;;;;;;;21.15;16.15;;;615.30;1408.00;;;;;;5097048;28;20461;-68
2021/07/24 22:10:36;;;;;;;19.52;16.38;;;615.20;1408.00;;;;;;5097008;28;20027;-68
2021/07/24 22:13:03;;;;;;;20.75;17.08;;;615.20;1408.00;;;;;;5095336;28;20424;-68
2021/07/24 22:15:34;;;;;;;21.52;17.02;;;615.20;1433.60;;;;;;5097021;28;20008;-67
2021/07/24 22:18:06;;;;;;;24.63;18.58;;;615.20;1433.60;;;;;;5094926;28;20115;-68
2021/07/24 22:20:33;;;;;;;23.30;18.60;;;615.10;1433.60;;;;;;5096752;28;20049;-67
2021/07/24 22:22:59;;;;;;;29.05;18.10;;;615.10;1433.60;;;;;;5096101;28;20439;-67
2021/07/24 22:25:26;;;;;;;20.20;17.73;;;615.10;1433.60;;;;;;5096636;28;20505;-67
2021/07/24 22:27:55;;;;;;;23.40;17.55;;;615.00;1459.20;;;;;;5096519;28;20039;-68
2021/07/24 22:30:21;;;;;;;22.92;17.98;;;615.00;1459.20;;;;;;5096527;28;20384;-69
2021/07/24 22:32:47;;;;;;;25.65;19.02;;;614.90;1459.20;;;;;;5097226;28;20024;-69
2021/07/24 22:35:13;;;;;;;21.08;17.58;;;614.90;1459.20;;;;;;5097349;28;20023;-69
2021/07/24 22:37:38;;;;;;;24.48;19.15;;;614.90;1459.20;;;;;;5096681;28;20024;-69
2021/07/24 22:40:05;;;;;;;23.35;18.98;;;614.90;1459.20;;;;;;5097084;28;20023;-69
2021/07/24 22:42:31;;;;;;;24.05;19.30;;;614.90;1459.20;;;;;;5096444;28;20044;-68
2021/07/24 22:44:57;;;;;;;22.65;19.08;;;614.90;1459.20;;;;;;5097276;28;20094;-68
2021/07/24 22:47:23;;;;;;;21.33;18.60;;;614.90;1484.80;;;;;;5097114;28;20047;-68
2021/07/24 22:49:48;;;;;;;26.42;20.73;;;614.90;1484.80;;;;;;5097100;28;20039;-69
2021/07/24 22:52:14;;;;;;;20.77;18.55;;;614.90;1484.80;;;;;;5096907;28;20020;-68
2021/07/24 22:54:40;;;;;;;23.88;19.13;;;614.80;1484.80;;;;;;5096658;28;20516;-70
2021/07/24 22:57:06;;;;;;;23.05;18.73;;;614.80;1484.80;;;;;;5096949;28;20074;-69
2021/07/24 22:59:32;;;;;;;21.85;18.63;;;614.80;1484.80;;;;;;5096776;28;20359;-69
2021/07/24 23:01:57;;;;;;;24.30;19.65;;;614.80;1484.80;;;;;;5096732;28;20056;-68
2021/07/24 23:04:23;;;;;;;21.02;18.58;;;614.70;1510.40;;;;;;5096703;28;20028;-71
2021/07/24 23:06:51;;;;;;;23.38;19.13;;;614.70;1510.40;;;;;;5096751;28;20370;-68
2021/07/24 23:09:17;;;;;;;26.17;19.23;;;614.60;1510.40;;;;;;5096469;28;20024;-72
2021/07/24 23:11:43;;;;;;;23.27;19.08;;;614.60;1536.00;;;;;;5096588;28;20028;-71
2021/07/24 23:14:09;;;;;;;25.15;19.25;;;614.60;1536.00;;;;;;5096295;28;20142;-70
2021/07/24 23:16:35;;;;;;;21.77;19.08;;;614.50;1536.00;;;;;;5096365;28;20042;-70
2021/07/24 23:19:01;;;;;;;24.50;18.90;;;614.50;1536.00;;;;;;5097071;28;20125;-70
2021/07/24 23:21:27;;;;;;;20.08;17.40;;;614.50;1536.00;;;;;;5096507;28;20447;-71
2021/07/24 23:23:54;;;;;;;21.00;18.15;;;614.40;1536.00;;;;;;5094857;28;20039;-70
2021/07/24 23:26:20;;;;;;;22.45;19.30;;;614.40;1536.00;;;;;;5095987;28;20490;-69
2021/07/24 23:28:46;;;;;;;28.23;19.20;;;614.40;1536.00;;;;;;5096185;28;20034;-69
2021/07/24 23:31:12;;;;;;;20.33;18.33;;;614.40;1536.00;;;;;;5096221;28;20099;-72
2021/07/24 23:33:38;;;;;;;22.80;17.80;;;614.40;1536.00;;;;;;5096312;28;20466;-71
2021/07/24 23:36:04;;;;;;;22.27;17.92;;;589.70;1536.00;;;;;;5096074;28;20028;-70
2021/07/24 23:38:29;;;;;;;24.38;18.10;;;589.70;1536.00;;;;;;5096132;28;20024;-70
2021/07/24 23:40:55;;;;;;;19.95;17.85;;;589.70;1536.00;;;;;;5095963;28;20470;-69
2021/07/24 23:43:22;;;;;;;21.40;17.40;;;589.70;1536.00;;;;;;5095693;28;20130;-69
2021/07/24 23:45:49;;;;;;;19.92;17.17;;;589.70;1536.00;;;;;;5095740;28;20016;-70
2021/07/24 23:48:14;;;;;;;22.77;17.58;;;589.60;1536.00;;;;;;5095919;28;20035;-70
2021/07/24 23:50:40;;;;;;;24.52;17.85;;;589.60;1536.00;;;;;;5096418;28;20096;-71
2021/07/24 23:53:06;;;;;;;19.90;15.90;;;589.60;1561.60;;;;;;5095782;28;20039;-73
2021/07/24 23:55:31;;;;;;;24.40;17.20;;;589.60;1561.60;;;;;;5095851;28;20030;-72
2021/07/24 23:58:07;;;;;;;17.73;15.77;;;589.60;1561.60;;;;;;5095668;28;20050;-70
